Sakura — JG5711 — position and weather

sailwx.info

Track history (hours):
 
Tides and Currents Weather Stations Pressure Air Temp Water Temp Dewpoint Dewpoint Depression Visibility Wind Speed Wind Dir Waves Ship Positions

Sakura

Last reported at 2017-May-26 11:00 UTC. Time now 2017-May-26 14:54 UTC.
Position N 35°27' E 139°40'.

Length 32 m; draft 3.6 m.

Type: Tug. MMSI: 431101178.

Date/timePositionNaut miles runAvg speedWind from/ knotsBaromVisibWave heightAir tempDewpointWater temp
2017-May-26 11:00N 35°27' E 139°40'0 0.0
2017-May-26 10:30N 35°27' E 139°40'0 0.0
2017-May-26 10:00N 35°27' E 139°40'0 0.0
2017-May-26 09:30N 35°27' E 139°40'1 2.3
2017-May-26 09:01N 35°27' E 139°41'0 0.2
2017-May-26 08:30N 35°27' E 139°41'1 2.5
2017-May-26 08:00N 35°27' E 139°40'0 0.0
2017-May-26 07:30N 35°27' E 139°40'0 0.0
2017-May-26 07:00N 35°27' E 139°40'0 0.0
2017-May-26 06:30N 35°27' E 139°40'0 0.0
2017-May-26 06:00N 35°27' E 139°40'0 0.3
2017-May-26 05:30N 35°27' E 139°39'0 0.3
2017-May-26 05:00N 35°27' E 139°40'4 7.6
2017-May-26 04:30N 35°23' E 139°40'2 3.4
2017-May-26 04:00N 35°24' E 139°38'0 0.1
2017-May-26 03:30N 35°24' E 139°38'1 1.3
2017-May-26 03:00N 35°24' E 139°39'2 4.4
2017-May-26 02:30N 35°23' E 139°41'2 4.2
2017-May-26 02:00N 35°24' E 139°39'1 1.6
2017-May-26 01:30N 35°24' E 139°38'0 0.0
2017-May-26 01:00N 35°24' E 139°38'2 4.3
2017-May-26 00:30N 35°23' E 139°41'4 7.3
2017-May-26 00:00N 35°27' E 139°41'1 1.9
2017-May-25 23:30N 35°27' E 139°40'0 0.0
2017-May-25 23:00N 35°27' E 139°40'0 0.0
2017-May-25 22:30N 35°27' E 139°40'0 0.0
2017-May-25 22:00N 35°27' E 139°40'0 0.0
2017-May-25 00:02N 35°27' E 139°40'0 0.0
2017-May-25 00:00N 35°27' E 139°40'1 2.4
2017-May-24 23:30N 35°26' E 139°41'0 0.9
2017-May-24 23:01N 35°27' E 139°41'2 4.6
2017-May-24 22:31N 35°26' E 139°44'2 3.3
2017-May-24 22:00N 35°28' E 139°44'0 0.0
2017-May-24 21:31N 35°28' E 139°44'0 0.0
2017-May-24 21:01N 35°28' E 139°44'0 0.0
2017-May-24 20:31N 35°28' E 139°44'1 2.4
2017-May-24 20:00N 35°29' E 139°44'0 0.1
2017-May-24 19:31N 35°29' E 139°44'1 2.5
2017-May-24 19:01N 35°28' E 139°45'1 2.4
2017-May-24 18:31N 35°28' E 139°47'1 2.5
2017-May-24 18:01N 35°28' E 139°45'1 2.2
2017-May-24 17:31N 35°29' E 139°44'3 5.4
2017-May-24 17:01N 35°27' E 139°42'2 4.1
2017-May-24 16:30N 35°27' E 139°40'0 0.0
2017-May-24 16:00N 35°27' E 139°40'0 0.0
2017-May-24 15:30N 35°27' E 139°40'0 0.0
2017-May-24 15:00N 35°27' E 139°40'0 0.0
2017-May-24 14:30N 35°27' E 139°40'0 0.0
2017-May-24 13:30N 35°27' E 139°40'0 0.0
2017-May-24 13:00N 35°27' E 139°40'0 0.0
2017-May-24 12:30N 35°27' E 139°40'0 0.0
2017-May-24 12:00N 35°27' E 139°40'0 0.0
2017-May-24 11:30N 35°27' E 139°40'0 0.0
2017-May-24 11:00N 35°27' E 139°40'0 0.0
2017-May-24 10:30N 35°27' E 139°40'0 0.0
2017-May-24 10:00N 35°27' E 139°40'0 0.0
2017-May-24 09:30N 35°27' E 139°40'0 0.0
2017-May-24 09:00N 35°27' E 139°40'3 5.2
2017-May-24 08:30N 35°27' E 139°43'4 8.0
2017-May-24 08:00N 35°30' E 139°46'2 3.3
2017-May-24 07:30N 35°30' E 139°44'3 6.9
2017-May-24 07:00N 35°28' E 139°40'1 2.3
2017-May-24 06:30N 35°27' E 139°40'0 0.0
2017-May-24 06:00N 35°27' E 139°40'0 0.0
2017-May-24 05:30N 35°27' E 139°40'0 0.0
2017-May-24 05:00N 35°27' E 139°40'0 0.0
2017-May-24 04:30N 35°27' E 139°40'0 0.0
2017-May-24 04:00N 35°27' E 139°40'0 0.0
2017-May-24 03:30N 35°27' E 139°40'0 0.0
2017-May-24 03:00N 35°27' E 139°40'0 0.0
2017-May-24 02:30N 35°27' E 139°40'0 0.0
2017-May-24 02:00N 35°27' E 139°40'0 0.0
2017-May-24 01:30N 35°27' E 139°40'0 0.0
2017-May-24 01:00N 35°27' E 139°40'0 0.0
2017-May-24 00:30N 35°27' E 139°40'0 0.0
2017-May-24 00:00N 35°27' E 139°40'0 0.0
2017-May-23 23:30N 35°27' E 139°40'0 0.0
2017-May-23 23:00N 35°27' E 139°40'0 0.0
2017-May-23 22:30N 35°27' E 139°40'1 2.3
2017-May-23 22:00N 35°27' E 139°41'1 1.8
2017-May-23 21:30N 35°27' E 139°42'2 3.6
2017-May-23 21:01N 35°25' E 139°43'3 6.4
2017-May-23 20:30N 35°27' E 139°40'0 0.0
2017-May-23 20:00N 35°27' E 139°40'0 0.0
2017-May-23 10:32N 35°27' E 139°40'0 0.0
2017-May-23 10:30N 35°27' E 139°40'3 5.1
2017-May-23 10:00N 35°27' E 139°43'3 5.4
2017-May-23 09:30N 35°29' E 139°45'1 1.7
2017-May-23 09:00N 35°28' E 139°45'0 0.0
2017-May-23 08:30N 35°28' E 139°45'0 0.0
2017-May-23 08:00N 35°28' E 139°45'0 0.0
2017-May-23 07:30N 35°28' E 139°45'1 1.7
2017-May-23 07:00N 35°29' E 139°45'0 0.0
2017-May-23 06:30N 35°29' E 139°45'1 2.5
2017-May-23 06:00N 35°28' E 139°45'0 0.6
2017-May-23 05:30N 35°28' E 139°45'4 7.8
2017-May-23 05:00N 35°27' E 139°41'1 1.9
2017-May-23 04:30N 35°27' E 139°40'0 0.0
2017-May-23 04:00N 35°27' E 139°40'0 0.0
2017-May-23 03:30N 35°27' E 139°40'0 0.0
2017-May-23 03:00N 35°27' E 139°40'0 0.0
2017-May-23 02:30N 35°27' E 139°40'0 0.0
2017-May-23 02:00N 35°27' E 139°40'0 0.0
2017-May-23 01:30N 35°27' E 139°40'0 0.0
2017-May-23 01:00N 35°27' E 139°40'0 0.0
2017-May-23 00:30N 35°27' E 139°40'0 0.0
2017-May-23 00:00N 35°27' E 139°40'0 0.0
2017-May-22 23:30N 35°27' E 139°40'0 0.0
2017-May-22 23:00N 35°27' E 139°40'0 0.0
2017-May-22 22:30N 35°27' E 139°40'0 0.0
2017-May-22 22:00N 35°27' E 139°40'0 0.0
2017-May-22 07:12N 35°27' E 139°40'0 0.0
2017-May-22 07:00N 35°27' E 139°40'0 0.0
2017-May-22 06:30N 35°27' E 139°40'0 0.0
2017-May-22 06:00N 35°27' E 139°40'0 0.0
2017-May-22 05:30N 35°27' E 139°40'0 0.0
2017-May-22 05:00N 35°27' E 139°40'0 0.0
2017-May-22 04:30N 35°27' E 139°40'0 0.0
2017-May-22 04:00N 35°27' E 139°40'0 0.0
2017-May-22 03:30N 35°27' E 139°40'0 0.0
2017-May-22 03:00N 35°27' E 139°40'0 0.0
2017-May-22 02:30N 35°27' E 139°40'0 0.0
2017-May-22 02:00N 35°27' E 139°40'0 0.0
2017-May-22 01:30N 35°27' E 139°40'0 0.0
2017-May-22 01:00N 35°27' E 139°40'0 0.0
2017-May-22 00:30N 35°27' E 139°40'0 0.0
2017-May-22 00:00N 35°27' E 139°40'0 0.0
2017-May-21 23:30N 35°27' E 139°40'4 7.4
2017-May-21 23:00N 35°29' E 139°43'0 0.1
2017-May-21 22:31N 35°29' E 139°43'1 1.5
2017-May-21 22:00N 35°29' E 139°42'2 3.8
2017-May-21 21:31N 35°27' E 139°43'1 2.4
2017-May-21 21:00N 35°27' E 139°42'2 3.8
2017-May-21 20:30N 35°27' E 139°39'0 0.0
2017-May-21 20:00N 35°27' E 139°39'0 0.0
2017-May-21 19:30N 35°27' E 139°39'0 0.0
2017-May-21 19:00N 35°27' E 139°39'0 0.0
2017-May-21 18:30N 35°27' E 139°39'0 0.0
2017-May-21 18:00N 35°27' E 139°39'0 0.0
2017-May-21 17:30N 35°27' E 139°39'0 0.0
2017-May-21 17:00N 35°27' E 139°39'0 0.0
2017-May-21 16:30N 35°27' E 139°39'0 0.0
2017-May-21 16:00N 35°27' E 139°39'0 0.0
2017-May-21 15:30N 35°27' E 139°39'0 0.0
2017-May-21 15:00N 35°27' E 139°39'0 0.0
2017-May-21 14:00N 35°27' E 139°39'0 0.0
2017-May-21 13:30N 35°27' E 139°39'0 0.0
2017-May-21 13:00N 35°27' E 139°39'0 0.0
2017-May-21 12:30N 35°27' E 139°39'0 0.0
2017-May-21 12:00N 35°27' E 139°39'0 0.0
2017-May-21 11:30N 35°27' E 139°39'0 0.0
2017-May-21 11:00N 35°27' E 139°39'0 0.0
2017-May-21 10:30N 35°27' E 139°39'0 0.0
2017-May-21 10:00N 35°27' E 139°39'5 9.3
2017-May-21 09:30N 35°28' E 139°45'3 5.4
2017-May-21 09:00N 35°31' E 139°46'0 0.0
2017-May-21 08:30N 35°31' E 139°46'5 9.6
2017-May-21 08:00N 35°28' E 139°41'2 3.8
2017-May-21 07:30N 35°27' E 139°40'0 0.0
2017-May-21 07:00N 35°27' E 139°40'0 0.0
2017-May-21 06:30N 35°27' E 139°40'0 0.0
2017-May-21 06:00N 35°27' E 139°40'0 0.0
2017-May-21 05:30N 35°27' E 139°40'0 0.0
2017-May-21 05:00N 35°27' E 139°40'0 0.0
2017-May-21 04:30N 35°27' E 139°40'0 0.0
2017-May-21 04:00N 35°27' E 139°40'0 0.0
2017-May-21 03:30N 35°27' E 139°40'0 0.0
2017-May-21 03:00N 35°27' E 139°40'0 0.0
2017-May-21 02:30N 35°27' E 139°40'0 0.0
2017-May-21 02:00N 35°27' E 139°40'0 0.0
2017-May-21 01:30N 35°27' E 139°40'0 0.0
2017-May-21 01:00N 35°27' E 139°40'0 0.0
2017-May-21 00:30N 35°27' E 139°40'0 0.0
2017-May-21 00:00N 35°27' E 139°40'0 0.0
2017-May-20 23:30N 35°27' E 139°40'0 0.0
2017-May-20 23:00N 35°27' E 139°40'0 0.0
2017-May-20 22:30N 35°27' E 139°40'0 0.0
2017-May-20 07:10N 35°27' E 139°40'0 0.0
2017-May-20 07:00N 35°27' E 139°40'0 0.0
2017-May-20 06:30N 35°27' E 139°40'0 0.0
2017-May-20 06:00N 35°27' E 139°40'0 0.0
2017-May-20 05:30N 35°27' E 139°40'3 5.8
2017-May-20 05:00N 35°25' E 139°42'3 6.1
2017-May-20 04:30N 35°23' E 139°39'1 1.2
2017-May-20 04:00N 35°23' E 139°40'1 1.1
2017-May-20 03:31N 35°23' E 139°40'3 6.7
2017-May-20 03:00N 35°27' E 139°41'1 2.7
2017-May-20 02:30N 35°27' E 139°40'0 0.0
2017-May-20 02:00N 35°27' E 139°40'0 0.0
2017-May-20 01:30N 35°27' E 139°40'0 0.0
2017-May-20 01:00N 35°27' E 139°40'0 0.0
2017-May-20 00:30N 35°27' E 139°40'0 0.0
2017-May-20 00:00N 35°27' E 139°40'0 0.0
2017-May-19 23:30N 35°27' E 139°40'2 3.7
2017-May-19 23:00N 35°27' E 139°42'611.3
2017-May-19 22:30N 35°30' E 139°48'1 2.9
2017-May-19 22:00N 35°30' E 139°46'5 9.9
2017-May-19 21:30N 35°28' E 139°40'1 2.6
2017-May-19 21:00N 35°27' E 139°40'0 0.0
2017-May-19 20:30N 35°27' E 139°40'0 0.0
2017-May-18 23:52N 35°27' E 139°40'0 0.0
2017-May-18 23:30N 35°27' E 139°40'1 2.4
2017-May-18 23:00N 35°26' E 139°41'1 1.8
2017-May-18 22:30N 35°27' E 139°42'2 4.8
2017-May-18 22:00N 35°26' E 139°45'1 2.7
2017-May-18 21:30N 35°27' E 139°44'2 3.7
2017-May-18 21:00N 35°28' E 139°41'0 0.3
2017-May-18 20:30N 35°28' E 139°42'0 0.9
2017-May-18 20:00N 35°28' E 139°42'0 0.0
2017-May-18 19:31N 35°28' E 139°42'1 2.8
2017-May-18 19:01N 35°26' E 139°41'0 0.7
2017-May-18 18:30N 35°26' E 139°41'1 2.4
2017-May-18 18:01N 35°27' E 139°40'0 0.0
2017-May-18 17:31N 35°27' E 139°40'0 0.0
2017-May-18 17:01N 35°27' E 139°40'0 0.0
2017-May-18 16:30N 35°27' E 139°40'0 0.0
2017-May-18 16:00N 35°27' E 139°40'0 0.0
2017-May-18 15:30N 35°27' E 139°40'0 0.0
2017-May-18 15:00N 35°27' E 139°40'0 0.0
2017-May-18 14:00N 35°27' E 139°40'0 0.0
2017-May-18 13:30N 35°27' E 139°40'0 0.0
2017-May-18 13:00N 35°27' E 139°40'0 0.0
2017-May-18 12:30N 35°27' E 139°40'0 0.0
2017-May-18 12:00N 35°27' E 139°40'4 7.0
2017-May-18 11:31N 35°24' E 139°41'1 1.6
2017-May-18 11:00N 35°24' E 139°40'1 1.4
2017-May-18 10:31N 35°24' E 139°40'0 0.0
2017-May-18 10:01N 35°24' E 139°40'0 0.0
2017-May-18 09:30N 35°24' E 139°40'5 9.6
2017-May-18 09:00N 35°28' E 139°42'0 0.1
2017-May-18 08:31N 35°28' E 139°42'2 4.1
2017-May-18 08:01N 35°27' E 139°40'0 0.0
2017-May-18 07:31N 35°27' E 139°40'0 0.0
2017-May-18 07:01N 35°27' E 139°40'0 0.0
2017-May-18 06:31N 35°27' E 139°40'0 0.0
2017-May-18 06:01N 35°27' E 139°40'0 0.0
2017-May-18 05:31N 35°27' E 139°40'0 0.0
2017-May-18 05:01N 35°27' E 139°40'0 0.0
2017-May-18 04:31N 35°27' E 139°40'0 0.0
2017-May-18 04:01N 35°27' E 139°40'0 0.0
2017-May-18 03:31N 35°27' E 139°40'1 2.8
2017-May-18 03:01N 35°28' E 139°41'0 0.3
2017-May-18 02:30N 35°28' E 139°41'0 0.9
2017-May-18 02:01N 35°28' E 139°41'0 0.7
2017-May-18 01:31N 35°29' E 139°42'1 2.9
2017-May-18 01:01N 35°27' E 139°42'0 0.0
2017-May-18 00:31N 35°27' E 139°42'0 0.0
2017-May-18 00:01N 35°27' E 139°42'0 0.0
2017-May-17 23:31N 35°27' E 139°42'0 0.0
2017-May-17 23:01N 35°27' E 139°42'1 1.9
2017-May-17 22:31N 35°28' E 139°41'0 0.2
2017-May-17 22:01N 35°28' E 139°42'1 2.7
2017-May-17 21:31N 35°27' E 139°43'0 1.0
2017-May-17 21:00N 35°27' E 139°43'3 5.2
2017-May-17 20:30N 35°27' E 139°40'0 0.0
2017-May-17 20:01N 35°27' E 139°40'0 0.0
2017-May-17 19:31N 35°27' E 139°40'0 0.0
2017-May-17 19:00N 35°27' E 139°40'0 0.0
2017-May-17 18:31N 35°27' E 139°40'0 0.0
2017-May-17 18:01N 35°27' E 139°40'0 0.0
2017-May-17 17:30N 35°27' E 139°40'0 0.0
2017-May-17 17:00N 35°27' E 139°40'0 0.0
2017-May-17 16:30N 35°27' E 139°40'0 0.0
2017-May-17 16:00N 35°27' E 139°40'0 0.0
2017-May-17 15:30N 35°27' E 139°40'0 0.0
2017-May-17 15:00N 35°27' E 139°40'0 0.0
2017-May-17 14:30N 35°27' E 139°40'0 0.0
2017-May-17 13:30N 35°27' E 139°40'0 0.0
2017-May-17 13:00N 35°27' E 139°40'0 0.0
2017-May-17 12:30N 35°27' E 139°40'0 0.0
2017-May-17 12:00N 35°27' E 139°40'0 0.0
2017-May-17 11:30N 35°27' E 139°40'0 0.0
2017-May-17 11:00N 35°27' E 139°40'0 0.0
2017-May-17 10:30N 35°27' E 139°40'1 1.6
2017-May-17 10:01N 35°27' E 139°41'612.5
2017-May-17 09:31N 35°30' E 139°48'3 6.9
2017-May-17 09:00N 35°30' E 139°43'0 0.6
2017-May-17 08:30N 35°29' E 139°43'3 5.1
2017-May-17 08:01N 35°28' E 139°40'1 2.4
2017-May-17 07:31N 35°27' E 139°40'0 0.0
2017-May-17 07:00N 35°27' E 139°40'0 0.0
2017-May-17 06:30N 35°27' E 139°40'0 0.0
2017-May-17 06:01N 35°27' E 139°40'0 0.0
2017-May-17 05:31N 35°27' E 139°40'0 0.0
2017-May-17 05:01N 35°27' E 139°40'0 0.0
2017-May-17 04:31N 35°27' E 139°40'0 0.0
2017-May-17 04:01N 35°27' E 139°40'0 0.0
2017-May-17 03:30N 35°27' E 139°40'0 0.0
2017-May-17 03:00N 35°27' E 139°40'0 0.0
2017-May-17 02:31N 35°27' E 139°40'0 0.0
2017-May-17 02:01N 35°27' E 139°40'0 0.0
2017-May-17 01:31N 35°27' E 139°40'0 0.0
2017-May-17 01:00N 35°27' E 139°40'0 0.4
2017-May-17 00:30N 35°27' E 139°40'611.6
2017-May-17 00:01N 35°30' E 139°45'1 1.2
2017-May-16 23:30N 35°31' E 139°46'3 5.4
2017-May-16 23:00N 35°29' E 139°43'2 4.3
2017-May-16 22:31N 35°27' E 139°43'2 3.5
2017-May-16 22:01N 35°27' E 139°41'1 2.3
2017-May-16 21:31N 35°27' E 139°40'0 0.0
2017-May-16 21:01N 35°27' E 139°40'  
Track history (hours):
 
Tides and Currents Weather Stations Pressure Air Temp Water Temp Dewpoint Dewpoint Depression Visibility Wind Speed Wind Dir Waves Ship Positions

Sakura

Last reported at 2017-May-26 11:00 UTC. Time now 2017-May-26 14:54 UTC.
Position N 35°27' E 139°40'.

Length 32 m; draft 3.6 m.

Type: Tug. MMSI: 431101178.

Date/timePositionNaut miles runAvg speedWind from/ knotsBaromVisibWave heightAir tempDewpointWater temp
2017-May-26 11:00N 35°27' E 139°40'0 0.0
2017-May-26 10:30N 35°27' E 139°40'0 0.0
2017-May-26 10:00N 35°27' E 139°40'0 0.0
2017-May-26 09:30N 35°27' E 139°40'1 2.3
2017-May-26 09:01N 35°27' E 139°41'0 0.2
2017-May-26 08:30N 35°27' E 139°41'1 2.5
2017-May-26 08:00N 35°27' E 139°40'0 0.0
2017-May-26 07:30N 35°27' E 139°40'0 0.0
2017-May-26 07:00N 35°27' E 139°40'0 0.0
2017-May-26 06:30N 35°27' E 139°40'0 0.0
2017-May-26 06:00N 35°27' E 139°40'0 0.3
2017-May-26 05:30N 35°27' E 139°39'0 0.3
2017-May-26 05:00N 35°27' E 139°40'4 7.6
2017-May-26 04:30N 35°23' E 139°40'2 3.4
2017-May-26 04:00N 35°24' E 139°38'0 0.1
2017-May-26 03:30N 35°24' E 139°38'1 1.3
2017-May-26 03:00N 35°24' E 139°39'2 4.4
2017-May-26 02:30N 35°23' E 139°41'2 4.2
2017-May-26 02:00N 35°24' E 139°39'1 1.6
2017-May-26 01:30N 35°24' E 139°38'0 0.0
2017-May-26 01:00N 35°24' E 139°38'2 4.3
2017-May-26 00:30N 35°23' E 139°41'4 7.3
2017-May-26 00:00N 35°27' E 139°41'1 1.9
2017-May-25 23:30N 35°27' E 139°40'0 0.0
2017-May-25 23:00N 35°27' E 139°40'0 0.0
2017-May-25 22:30N 35°27' E 139°40'0 0.0
2017-May-25 22:00N 35°27' E 139°40'0 0.0
2017-May-25 00:02N 35°27' E 139°40'0 0.0
2017-May-25 00:00N 35°27' E 139°40'1 2.4
2017-May-24 23:30N 35°26' E 139°41'0 0.9
2017-May-24 23:01N 35°27' E 139°41'2 4.6
2017-May-24 22:31N 35°26' E 139°44'2 3.3
2017-May-24 22:00N 35°28' E 139°44'0 0.0
2017-May-24 21:31N 35°28' E 139°44'0 0.0
2017-May-24 21:01N 35°28' E 139°44'0 0.0
2017-May-24 20:31N 35°28' E 139°44'1 2.4
2017-May-24 20:00N 35°29' E 139°44'0 0.1
2017-May-24 19:31N 35°29' E 139°44'1 2.5
2017-May-24 19:01N 35°28' E 139°45'1 2.4
2017-May-24 18:31N 35°28' E 139°47'1 2.5
2017-May-24 18:01N 35°28' E 139°45'1 2.2
2017-May-24 17:31N 35°29' E 139°44'3 5.4
2017-May-24 17:01N 35°27' E 139°42'2 4.1
2017-May-24 16:30N 35°27' E 139°40'0 0.0
2017-May-24 16:00N 35°27' E 139°40'0 0.0
2017-May-24 15:30N 35°27' E 139°40'0 0.0
2017-May-24 15:00N 35°27' E 139°40'0 0.0
2017-May-24 14:30N 35°27' E 139°40'0 0.0
2017-May-24 13:30N 35°27' E 139°40'0 0.0
2017-May-24 13:00N 35°27' E 139°40'0 0.0
2017-May-24 12:30N 35°27' E 139°40'0 0.0
2017-May-24 12:00N 35°27' E 139°40'0 0.0
2017-May-24 11:30N 35°27' E 139°40'0 0.0
2017-May-24 11:00N 35°27' E 139°40'0 0.0
2017-May-24 10:30N 35°27' E 139°40'0 0.0
2017-May-24 10:00N 35°27' E 139°40'0 0.0
2017-May-24 09:30N 35°27' E 139°40'0 0.0
2017-May-24 09:00N 35°27' E 139°40'3 5.2
2017-May-24 08:30N 35°27' E 139°43'4 8.0
2017-May-24 08:00N 35°30' E 139°46'2 3.3
2017-May-24 07:30N 35°30' E 139°44'3 6.9
2017-May-24 07:00N 35°28' E 139°40'1 2.3
2017-May-24 06:30N 35°27' E 139°40'0 0.0
2017-May-24 06:00N 35°27' E 139°40'0 0.0
2017-May-24 05:30N 35°27' E 139°40'0 0.0
2017-May-24 05:00N 35°27' E 139°40'0 0.0
2017-May-24 04:30N 35°27' E 139°40'0 0.0
2017-May-24 04:00N 35°27' E 139°40'0 0.0
2017-May-24 03:30N 35°27' E 139°40'0 0.0
2017-May-24 03:00N 35°27' E 139°40'0 0.0
2017-May-24 02:30N 35°27' E 139°40'0 0.0
2017-May-24 02:00N 35°27' E 139°40'0 0.0
2017-May-24 01:30N 35°27' E 139°40'0 0.0
2017-May-24 01:00N 35°27' E 139°40'0 0.0
2017-May-24 00:30N 35°27' E 139°40'0 0.0
2017-May-24 00:00N 35°27' E 139°40'0 0.0
2017-May-23 23:30N 35°27' E 139°40'0 0.0
2017-May-23 23:00N 35°27' E 139°40'0 0.0
2017-May-23 22:30N 35°27' E 139°40'1 2.3
2017-May-23 22:00N 35°27' E 139°41'1 1.8
2017-May-23 21:30N 35°27' E 139°42'2 3.6
2017-May-23 21:01N 35°25' E 139°43'3 6.4
2017-May-23 20:30N 35°27' E 139°40'0 0.0
2017-May-23 20:00N 35°27' E 139°40'0 0.0
2017-May-23 10:32N 35°27' E 139°40'0 0.0
2017-May-23 10:30N 35°27' E 139°40'3 5.1
2017-May-23 10:00N 35°27' E 139°43'3 5.4
2017-May-23 09:30N 35°29' E 139°45'1 1.7
2017-May-23 09:00N 35°28' E 139°45'0 0.0
2017-May-23 08:30N 35°28' E 139°45'0 0.0
2017-May-23 08:00N 35°28' E 139°45'0 0.0
2017-May-23 07:30N 35°28' E 139°45'1 1.7
2017-May-23 07:00N 35°29' E 139°45'0 0.0
2017-May-23 06:30N 35°29' E 139°45'1 2.5
2017-May-23 06:00N 35°28' E 139°45'0 0.6
2017-May-23 05:30N 35°28' E 139°45'4 7.8
2017-May-23 05:00N 35°27' E 139°41'1 1.9
2017-May-23 04:30N 35°27' E 139°40'0 0.0
2017-May-23 04:00N 35°27' E 139°40'0 0.0
2017-May-23 03:30N 35°27' E 139°40'0 0.0
2017-May-23 03:00N 35°27' E 139°40'0 0.0
2017-May-23 02:30N 35°27' E 139°40'0 0.0
2017-May-23 02:00N 35°27' E 139°40'0 0.0
2017-May-23 01:30N 35°27' E 139°40'0 0.0
2017-May-23 01:00N 35°27' E 139°40'0 0.0
2017-May-23 00:30N 35°27' E 139°40'0 0.0
2017-May-23 00:00N 35°27' E 139°40'0 0.0
2017-May-22 23:30N 35°27' E 139°40'0 0.0
2017-May-22 23:00N 35°27' E 139°40'0 0.0
2017-May-22 22:30N 35°27' E 139°40'0 0.0
2017-May-22 22:00N 35°27' E 139°40'0 0.0
2017-May-22 07:12N 35°27' E 139°40'0 0.0
2017-May-22 07:00N 35°27' E 139°40'0 0.0
2017-May-22 06:30N 35°27' E 139°40'0 0.0
2017-May-22 06:00N 35°27' E 139°40'0 0.0
2017-May-22 05:30N 35°27' E 139°40'0 0.0
2017-May-22 05:00N 35°27' E 139°40'0 0.0
2017-May-22 04:30N 35°27' E 139°40'0 0.0
2017-May-22 04:00N 35°27' E 139°40'0 0.0
2017-May-22 03:30N 35°27' E 139°40'0 0.0
2017-May-22 03:00N 35°27' E 139°40'0 0.0
2017-May-22 02:30N 35°27' E 139°40'0 0.0
2017-May-22 02:00N 35°27' E 139°40'0 0.0
2017-May-22 01:30N 35°27' E 139°40'0 0.0
2017-May-22 01:00N 35°27' E 139°40'0 0.0
2017-May-22 00:30N 35°27' E 139°40'0 0.0
2017-May-22 00:00N 35°27' E 139°40'0 0.0
2017-May-21 23:30N 35°27' E 139°40'4 7.4
2017-May-21 23:00N 35°29' E 139°43'0 0.1
2017-May-21 22:31N 35°29' E 139°43'1 1.5
2017-May-21 22:00N 35°29' E 139°42'2 3.8
2017-May-21 21:31N 35°27' E 139°43'1 2.4
2017-May-21 21:00N 35°27' E 139°42'2 3.8
2017-May-21 20:30N 35°27' E 139°39'0 0.0
2017-May-21 20:00N 35°27' E 139°39'0 0.0
2017-May-21 19:30N 35°27' E 139°39'0 0.0
2017-May-21 19:00N 35°27' E 139°39'0 0.0
2017-May-21 18:30N 35°27' E 139°39'0 0.0
2017-May-21 18:00N 35°27' E 139°39'0 0.0
2017-May-21 17:30N 35°27' E 139°39'0 0.0
2017-May-21 17:00N 35°27' E 139°39'0 0.0
2017-May-21 16:30N 35°27' E 139°39'0 0.0
2017-May-21 16:00N 35°27' E 139°39'0 0.0
2017-May-21 15:30N 35°27' E 139°39'0 0.0
2017-May-21 15:00N 35°27' E 139°39'0 0.0
2017-May-21 14:00N 35°27' E 139°39'0 0.0
2017-May-21 13:30N 35°27' E 139°39'0 0.0
2017-May-21 13:00N 35°27' E 139°39'0 0.0
2017-May-21 12:30N 35°27' E 139°39'0 0.0
2017-May-21 12:00N 35°27' E 139°39'0 0.0
2017-May-21 11:30N 35°27' E 139°39'0 0.0
2017-May-21 11:00N 35°27' E 139°39'0 0.0
2017-May-21 10:30N 35°27' E 139°39'0 0.0
2017-May-21 10:00N 35°27' E 139°39'5 9.3
2017-May-21 09:30N 35°28' E 139°45'3 5.4
2017-May-21 09:00N 35°31' E 139°46'0 0.0
2017-May-21 08:30N 35°31' E 139°46'5 9.6
2017-May-21 08:00N 35°28' E 139°41'2 3.8
2017-May-21 07:30N 35°27' E 139°40'0 0.0
2017-May-21 07:00N 35°27' E 139°40'0 0.0
2017-May-21 06:30N 35°27' E 139°40'0 0.0
2017-May-21 06:00N 35°27' E 139°40'0 0.0
2017-May-21 05:30N 35°27' E 139°40'0 0.0
2017-May-21 05:00N 35°27' E 139°40'0 0.0
2017-May-21 04:30N 35°27' E 139°40'0 0.0
2017-May-21 04:00N 35°27' E 139°40'0 0.0
2017-May-21 03:30N 35°27' E 139°40'0 0.0
2017-May-21 03:00N 35°27' E 139°40'0 0.0
2017-May-21 02:30N 35°27' E 139°40'0 0.0
2017-May-21 02:00N 35°27' E 139°40'0 0.0
2017-May-21 01:30N 35°27' E 139°40'0 0.0
2017-May-21 01:00N 35°27' E 139°40'0 0.0
2017-May-21 00:30N 35°27' E 139°40'0 0.0
2017-May-21 00:00N 35°27' E 139°40'0 0.0
2017-May-20 23:30N 35°27' E 139°40'0 0.0
2017-May-20 23:00N 35°27' E 139°40'0 0.0
2017-May-20 22:30N 35°27' E 139°40'0 0.0
2017-May-20 07:10N 35°27' E 139°40'0 0.0
2017-May-20 07:00N 35°27' E 139°40'0 0.0
2017-May-20 06:30N 35°27' E 139°40'0 0.0
2017-May-20 06:00N 35°27' E 139°40'0 0.0
2017-May-20 05:30N 35°27' E 139°40'3 5.8
2017-May-20 05:00N 35°25' E 139°42'3 6.1
2017-May-20 04:30N 35°23' E 139°39'1 1.2
2017-May-20 04:00N 35°23' E 139°40'1 1.1
2017-May-20 03:31N 35°23' E 139°40'3 6.7
2017-May-20 03:00N 35°27' E 139°41'1 2.7
2017-May-20 02:30N 35°27' E 139°40'0 0.0
2017-May-20 02:00N 35°27' E 139°40'0 0.0
2017-May-20 01:30N 35°27' E 139°40'0 0.0
2017-May-20 01:00N 35°27' E 139°40'0 0.0
2017-May-20 00:30N 35°27' E 139°40'0 0.0
2017-May-20 00:00N 35°27' E 139°40'0 0.0
2017-May-19 23:30N 35°27' E 139°40'2 3.7
2017-May-19 23:00N 35°27' E 139°42'611.3
2017-May-19 22:30N 35°30' E 139°48'1 2.9
2017-May-19 22:00N 35°30' E 139°46'5 9.9
2017-May-19 21:30N 35°28' E 139°40'1 2.6
2017-May-19 21:00N 35°27' E 139°40'0 0.0
2017-May-19 20:30N 35°27' E 139°40'0 0.0
2017-May-18 23:52N 35°27' E 139°40'0 0.0
2017-May-18 23:30N 35°27' E 139°40'1 2.4
2017-May-18 23:00N 35°26' E 139°41'1 1.8
2017-May-18 22:30N 35°27' E 139°42'2 4.8
2017-May-18 22:00N 35°26' E 139°45'1 2.7
2017-May-18 21:30N 35°27' E 139°44'2 3.7
2017-May-18 21:00N 35°28' E 139°41'0 0.3
2017-May-18 20:30N 35°28' E 139°42'0 0.9
2017-May-18 20:00N 35°28' E 139°42'0 0.0
2017-May-18 19:31N 35°28' E 139°42'1 2.8
2017-May-18 19:01N 35°26' E 139°41'0 0.7
2017-May-18 18:30N 35°26' E 139°41'1 2.4
2017-May-18 18:01N 35°27' E 139°40'0 0.0
2017-May-18 17:31N 35°27' E 139°40'0 0.0
2017-May-18 17:01N 35°27' E 139°40'0 0.0
2017-May-18 16:30N 35°27' E 139°40'0 0.0
2017-May-18 16:00N 35°27' E 139°40'0 0.0
2017-May-18 15:30N 35°27' E 139°40'0 0.0
2017-May-18 15:00N 35°27' E 139°40'0 0.0
2017-May-18 14:00N 35°27' E 139°40'0 0.0
2017-May-18 13:30N 35°27' E 139°40'0 0.0
2017-May-18 13:00N 35°27' E 139°40'0 0.0
2017-May-18 12:30N 35°27' E 139°40'0 0.0
2017-May-18 12:00N 35°27' E 139°40'4 7.0
2017-May-18 11:31N 35°24' E 139°41'1 1.6
2017-May-18 11:00N 35°24' E 139°40'1 1.4
2017-May-18 10:31N 35°24' E 139°40'0 0.0
2017-May-18 10:01N 35°24' E 139°40'0 0.0
2017-May-18 09:30N 35°24' E 139°40'5 9.6
2017-May-18 09:00N 35°28' E 139°42'0 0.1
2017-May-18 08:31N 35°28' E 139°42'2 4.1
2017-May-18 08:01N 35°27' E 139°40'0 0.0
2017-May-18 07:31N 35°27' E 139°40'0 0.0
2017-May-18 07:01N 35°27' E 139°40'0 0.0
2017-May-18 06:31N 35°27' E 139°40'0 0.0
2017-May-18 06:01N 35°27' E 139°40'0 0.0
2017-May-18 05:31N 35°27' E 139°40'0 0.0
2017-May-18 05:01N 35°27' E 139°40'0 0.0
2017-May-18 04:31N 35°27' E 139°40'0 0.0
2017-May-18 04:01N 35°27' E 139°40'0 0.0
2017-May-18 03:31N 35°27' E 139°40'1 2.8
2017-May-18 03:01N 35°28' E 139°41'0 0.3
2017-May-18 02:30N 35°28' E 139°41'0 0.9
2017-May-18 02:01N 35°28' E 139°41'0 0.7
2017-May-18 01:31N 35°29' E 139°42'1 2.9
2017-May-18 01:01N 35°27' E 139°42'0 0.0
2017-May-18 00:31N 35°27' E 139°42'0 0.0
2017-May-18 00:01N 35°27' E 139°42'0 0.0
2017-May-17 23:31N 35°27' E 139°42'0 0.0
2017-May-17 23:01N 35°27' E 139°42'1 1.9
2017-May-17 22:31N 35°28' E 139°41'0 0.2
2017-May-17 22:01N 35°28' E 139°42'1 2.7
2017-May-17 21:31N 35°27' E 139°43'0 1.0
2017-May-17 21:00N 35°27' E 139°43'3 5.2
2017-May-17 20:30N 35°27' E 139°40'0 0.0
2017-May-17 20:01N 35°27' E 139°40'0 0.0
2017-May-17 19:31N 35°27' E 139°40'0 0.0
2017-May-17 19:00N 35°27' E 139°40'0 0.0
2017-May-17 18:31N 35°27' E 139°40'0 0.0
2017-May-17 18:01N 35°27' E 139°40'0 0.0
2017-May-17 17:30N 35°27' E 139°40'0 0.0
2017-May-17 17:00N 35°27' E 139°40'0 0.0
2017-May-17 16:30N 35°27' E 139°40'0 0.0
2017-May-17 16:00N 35°27' E 139°40'0 0.0
2017-May-17 15:30N 35°27' E 139°40'0 0.0
2017-May-17 15:00N 35°27' E 139°40'0 0.0
2017-May-17 14:30N 35°27' E 139°40'0 0.0
2017-May-17 13:30N 35°27' E 139°40'0 0.0
2017-May-17 13:00N 35°27' E 139°40'0 0.0
2017-May-17 12:30N 35°27' E 139°40'0 0.0
2017-May-17 12:00N 35°27' E 139°40'0 0.0
2017-May-17 11:30N 35°27' E 139°40'0 0.0
2017-May-17 11:00N 35°27' E 139°40'0 0.0
2017-May-17 10:30N 35°27' E 139°40'1 1.6
2017-May-17 10:01N 35°27' E 139°41'612.5
2017-May-17 09:31N 35°30' E 139°48'3 6.9
2017-May-17 09:00N 35°30' E 139°43'0 0.6
2017-May-17 08:30N 35°29' E 139°43'3 5.1
2017-May-17 08:01N 35°28' E 139°40'1 2.4
2017-May-17 07:31N 35°27' E 139°40'0 0.0
2017-May-17 07:00N 35°27' E 139°40'0 0.0
2017-May-17 06:30N 35°27' E 139°40'0 0.0
2017-May-17 06:01N 35°27' E 139°40'0 0.0
2017-May-17 05:31N 35°27' E 139°40'0 0.0
2017-May-17 05:01N 35°27' E 139°40'0 0.0
2017-May-17 04:31N 35°27' E 139°40'0 0.0
2017-May-17 04:01N 35°27' E 139°40'0 0.0
2017-May-17 03:30N 35°27' E 139°40'0 0.0
2017-May-17 03:00N 35°27' E 139°40'0 0.0
2017-May-17 02:31N 35°27' E 139°40'0 0.0
2017-May-17 02:01N 35°27' E 139°40'0 0.0
2017-May-17 01:31N 35°27' E 139°40'0 0.0
2017-May-17 01:00N 35°27' E 139°40'0 0.4
2017-May-17 00:30N 35°27' E 139°40'611.6
2017-May-17 00:01N 35°30' E 139°45'1 1.2
2017-May-16 23:30N 35°31' E 139°46'3 5.4
2017-May-16 23:00N 35°29' E 139°43'2 4.3
2017-May-16 22:31N 35°27' E 139°43'2 3.5
2017-May-16 22:01N 35°27' E 139°41'1 2.3
2017-May-16 21:31N 35°27' E 139°40'0 0.0
2017-May-16 21:01N 35°27' E 139°40'  

Dump ship's entire track history